createdAt,value
2022-09-23T00:01:24.256Z,100.00
2022-09-23T00:03:52.163Z,100.00
2022-09-23T00:06:23.448Z,100.00
2022-09-23T00:08:52.311Z,100.00
2022-09-23T00:11:21.758Z,100.00
2022-09-23T00:13:51.467Z,100.00
2022-09-23T00:16:22.546Z,100.00
2022-09-23T00:18:50.889Z,100.00
2022-09-23T00:21:20.312Z,100.00
2022-09-23T00:23:49.960Z,100.00
2022-09-23T00:26:20.508Z,100.00
2022-09-23T00:28:49.638Z,100.00
2022-09-23T00:31:19.968Z,100.00
2022-09-23T00:33:48.123Z,100.00
2022-09-23T00:36:17.168Z,100.00
2022-09-23T00:38:46.242Z,100.00
2022-09-23T00:41:16.332Z,100.00
2022-09-23T00:43:46.917Z,100.00
2022-09-23T00:46:19.461Z,100.00
2022-09-23T00:48:49.653Z,100.00
2022-09-23T00:51:21.900Z,100.00
2022-09-23T00:53:52.548Z,100.00
2022-09-23T00:56:25.034Z,100.00
2022-09-23T00:58:53.744Z,100.00
2022-09-23T01:01:22.410Z,100.00
2022-09-23T01:03:51.257Z,100.00
2022-09-23T01:06:19.199Z,100.00
2022-09-23T01:08:48.518Z,100.00
2022-09-23T01:11:31.463Z,100.00
2022-09-23T01:14:15.426Z,100.00
2022-09-23T01:16:50.801Z,100.00
2022-09-23T01:19:38.972Z,100.00
2022-09-23T01:22:14.973Z,100.00
2022-09-23T01:24:55.209Z,100.00
2022-09-23T01:27:48.730Z,100.00
2022-09-23T01:30:44.292Z,100.00
2022-09-23T01:33:16.907Z,100.00
2022-09-23T01:35:58.851Z,100.00
2022-09-23T01:38:36.977Z,100.00
2022-09-23T01:41:14.267Z,100.00
2022-09-23T01:43:50.851Z,100.00
2022-09-23T01:46:27.917Z,100.00
2022-09-23T01:49:02.190Z,100.00
2022-09-23T01:51:34.823Z,100.00
2022-09-23T01:54:10.202Z,100.00
2022-09-23T01:56:41.843Z,100.00
2022-09-23T01:59:14.875Z,100.00
2022-09-23T02:01:51.440Z,100.00
2022-09-23T02:04:23.904Z,100.00
2022-09-23T02:06:58.163Z,100.00
2022-09-23T02:09:31.212Z,100.00
2022-09-23T02:12:05.986Z,100.00
2022-09-23T02:14:39.847Z,100.00
2022-09-23T02:17:13.107Z,100.00
2022-09-23T02:19:47.929Z,100.00
2022-09-23T02:22:20.514Z,100.00
2022-09-23T02:24:49.986Z,100.00
2022-09-23T02:27:25.871Z,100.00
2022-09-23T02:29:58.725Z,100.00
2022-09-23T02:32:35.669Z,100.00
2022-09-23T02:35:13.339Z,100.00
2022-09-23T02:37:48.690Z,100.00
2022-09-23T02:40:23.796Z,100.00
2022-09-23T02:43:00.799Z,100.00
2022-09-23T02:45:28.808Z,100.00
2022-09-23T02:48:03.638Z,100.00
2022-09-23T02:50:32.900Z,100.00
2022-09-23T02:53:01.896Z,100.00
2022-09-23T02:55:32.485Z,100.00
2022-09-23T02:58:02.881Z,100.00
2022-09-23T03:00:45.537Z,100.00
2022-09-23T03:03:31.310Z,100.00
2022-09-23T03:06:00.793Z,100.00
2022-09-23T03:08:42.972Z,100.00
2022-09-23T03:11:13.675Z,100.00
2022-09-23T03:13:56.222Z,100.00
2022-09-23T03:16:32.154Z,100.00
2022-09-23T03:19:13.482Z,100.00
2022-09-23T03:21:46.549Z,100.00
2022-09-23T03:24:16.722Z,100.00
2022-09-23T03:26:47.868Z,100.00
2022-09-23T03:29:17.980Z,100.00
2022-09-23T03:31:46.644Z,100.00
2022-09-23T03:34:19.223Z,100.00
2022-09-23T03:36:53.404Z,100.00
2022-09-23T03:39:36.503Z,100.00
2022-09-23T03:42:08.679Z,100.00
2022-09-23T03:44:39.669Z,100.00
2022-09-23T03:47:07.847Z,100.00
2022-09-23T03:49:39.690Z,100.00
2022-09-23T03:52:07.947Z,100.00
2022-09-23T03:54:36.039Z,100.00
2022-09-23T03:57:04.629Z,100.00
2022-09-23T03:59:33.120Z,100.00
2022-09-23T04:02:01.915Z,100.00
2022-09-23T04:04:32.546Z,100.00
2022-09-23T04:07:01.901Z,100.00
2022-09-23T04:09:29.820Z,100.00
2022-09-23T04:11:57.755Z,100.00
2022-09-23T04:14:25.848Z,100.00
2022-09-23T04:16:53.826Z,100.00
2022-09-23T04:19:21.835Z,100.00
2022-09-23T04:21:49.921Z,100.00
2022-09-23T04:24:19.315Z,100.00
2022-09-23T04:26:47.278Z,100.00
2022-09-23T04:29:15.384Z,100.00
2022-09-23T04:31:43.315Z,100.00
2022-09-23T04:34:11.437Z,100.00
2022-09-23T04:36:39.705Z,100.00
2022-09-23T04:39:07.665Z,100.00
2022-09-23T04:41:37.224Z,100.00
2022-09-23T04:44:06.086Z,100.00
2022-09-23T04:46:34.619Z,100.00
2022-09-23T04:49:04.318Z,100.00
2022-09-23T04:51:32.273Z,100.00
2022-09-23T04:54:02.923Z,100.00
2022-09-23T04:56:32.924Z,100.00
2022-09-23T04:59:02.772Z,100.00
2022-09-23T05:01:34.481Z,100.00
2022-09-23T05:04:05.223Z,100.00
2022-09-23T05:06:35.020Z,100.00
2022-09-23T05:09:03.675Z,100.00
2022-09-23T05:11:32.371Z,100.00
2022-09-23T05:14:00.473Z,100.00
2022-09-23T05:16:29.955Z,100.00
2022-09-23T05:18:58.101Z,100.00
2022-09-23T05:21:29.146Z,100.00
2022-09-23T05:24:00.435Z,100.00
2022-09-23T05:26:30.403Z,100.00
2022-09-23T05:28:58.872Z,100.00
2022-09-23T05:31:30.025Z,100.00
2022-09-23T05:33:59.675Z,100.00
2022-09-23T05:36:28.694Z,100.00
2022-09-23T05:38:57.894Z,100.00
2022-09-23T05:41:27.550Z,100.00
2022-09-23T05:43:57.260Z,100.00
2022-09-23T05:46:27.937Z,100.00
2022-09-23T05:49:02.190Z,100.00
2022-09-23T05:51:31.839Z,100.00
2022-09-23T05:54:02.928Z,100.00
2022-09-23T05:56:32.043Z,100.00
2022-09-23T05:59:01.707Z,100.00
2022-09-23T06:01:33.616Z,100.00
2022-09-23T06:04:04.872Z,100.00
2022-09-23T06:06:34.796Z,100.00
2022-09-23T06:09:03.405Z,100.00
2022-09-23T06:11:32.209Z,100.00
2022-09-23T06:14:02.441Z,100.00
2022-09-23T06:16:32.448Z,100.00
2022-09-23T06:19:05.861Z,100.00
2022-09-23T06:21:37.746Z,100.00
2022-09-23T06:24:07.203Z,100.00
2022-09-23T06:26:35.672Z,100.00
2022-09-23T06:29:04.603Z,100.00
2022-09-23T06:31:32.983Z,100.00
2022-09-23T06:34:12.564Z,100.00
2022-09-23T06:36:45.050Z,100.00
2022-09-23T06:39:13.922Z,100.00
2022-09-23T06:41:41.931Z,100.00
2022-09-23T06:44:09.887Z,100.00
2022-09-23T06:46:37.940Z,100.00
2022-09-23T06:49:05.897Z,100.00
2022-09-23T06:51:33.851Z,100.00
2022-09-23T06:54:03.787Z,100.00
2022-09-23T06:56:36.291Z,100.00
2022-09-23T06:59:07.457Z,100.00
2022-09-23T07:01:35.744Z,100.00
2022-09-23T07:04:03.888Z,100.00
2022-09-23T07:06:31.784Z,100.00
2022-09-23T07:09:01.094Z,100.00
2022-09-23T07:11:30.514Z,100.00
2022-09-23T07:13:58.487Z,100.00
2022-09-23T07:16:26.801Z,100.00
2022-09-23T07:18:54.718Z,100.00
2022-09-23T07:21:22.656Z,100.00
2022-09-23T07:23:51.964Z,100.00
2022-09-23T07:26:21.176Z,100.00
2022-09-23T07:28:55.415Z,100.00
2022-09-23T07:31:35.948Z,100.00
2022-09-23T07:34:06.730Z,100.00
2022-09-23T07:36:37.677Z,100.00
2022-09-23T07:39:05.948Z,100.00
2022-09-23T07:41:35.477Z,100.00
2022-09-23T07:44:06.178Z,100.00
2022-09-23T07:46:37.242Z,100.00
2022-09-23T07:49:06.012Z,100.00
2022-09-23T07:51:36.884Z,100.00
2022-09-23T07:54:07.948Z,100.00
2022-09-23T07:56:37.339Z,100.00
2022-09-23T07:59:09.012Z,100.00
2022-09-23T08:01:39.874Z,100.00
2022-09-23T08:04:10.340Z,100.00
2022-09-23T08:06:41.822Z,100.00
2022-09-23T08:09:10.576Z,100.00
2022-09-23T08:11:39.442Z,100.00
2022-09-23T08:14:08.857Z,100.00
2022-09-23T08:16:37.166Z,100.00
2022-09-23T08:21:39.409Z,100.00
2022-09-23T08:24:08.130Z,100.00
2022-09-23T08:26:36.544Z,100.00
2022-09-23T08:29:04.860Z,100.00
2022-09-23T08:31:34.203Z,100.00
2022-09-23T08:34:02.375Z,100.00
2022-09-23T08:36:30.432Z,100.00
2022-09-23T08:38:58.379Z,100.00
2022-09-23T08:41:36.079Z,100.00
2022-09-23T08:44:09.916Z,100.00
2022-09-23T08:46:46.516Z,100.00
2022-09-23T08:49:24.884Z,100.00
2022-09-23T08:51:55.843Z,100.00
2022-09-23T08:54:26.539Z,100.00
2022-09-23T08:56:58.620Z,100.00
2022-09-23T08:59:36.872Z,100.00
2022-09-23T09:02:16.147Z,100.00
2022-09-23T09:04:46.441Z,100.00
2022-09-23T09:10:16.640Z,100.00
2022-09-23T09:12:47.625Z,100.00
2022-09-23T09:15:20.124Z,100.00
2022-09-23T09:18:01.305Z,100.00
2022-09-23T09:20:39.307Z,100.00
2022-09-23T09:23:21.504Z,100.00
2022-09-23T09:25:51.941Z,100.00
2022-09-23T09:28:25.856Z,100.00
2022-09-23T09:30:57.138Z,100.00
2022-09-23T09:33:33.878Z,94.24
2022-09-23T09:36:11.359Z,94.00
2022-09-23T09:38:39.532Z,92.73
2022-09-23T09:41:15.603Z,93.11
2022-09-23T09:43:48.571Z,93.73
2022-09-23T09:46:34.184Z,91.66
2022-09-23T09:49:10.490Z,90.17
2022-09-23T09:51:39.678Z,89.52
2022-09-23T09:54:18.720Z,88.96
2022-09-23T09:56:50.353Z,93.55
2022-09-23T09:59:23.490Z,96.78
2022-09-23T10:02:11.461Z,89.71
2022-09-23T10:04:41.787Z,89.77
2022-09-23T10:07:14.007Z,85.72
2022-09-23T10:09:48.997Z,85.48
2022-09-23T10:12:19.196Z,85.41
2022-09-23T10:14:50.576Z,85.51
2022-09-23T10:17:22.179Z,84.58
2022-09-23T10:20:00.353Z,85.12
2022-09-23T10:22:34.719Z,84.34
2022-09-23T10:25:07.897Z,83.58
2022-09-23T10:27:38.905Z,87.17
2022-09-23T10:30:21.689Z,86.33
2022-09-23T10:32:51.170Z,88.40
2022-09-23T10:35:22.583Z,88.49
2022-09-23T10:37:52.699Z,86.63
2022-09-23T10:40:57.302Z,83.87
2022-09-23T10:43:46.706Z,79.35
2022-09-23T10:46:37.601Z,78.86
2022-09-23T10:49:22.743Z,79.35
2022-09-23T10:52:02.909Z,79.53
2022-09-23T10:54:46.392Z,81.02
2022-09-23T10:57:40.538Z,78.63
2022-09-23T11:00:23.240Z,80.39
2022-09-23T11:03:27.776Z,82.12
2022-09-23T11:06:06.536Z,84.09
2022-09-23T11:09:06.446Z,86.08
2022-09-23T11:11:44.820Z,85.55
2022-09-23T11:14:38.836Z,84.20
2022-09-23T11:17:27.079Z,81.55
2022-09-23T11:20:32.623Z,79.94
2022-09-23T11:23:22.156Z,80.64
2022-09-23T11:26:00.296Z,79.27
2022-09-23T11:29:06.812Z,76.26
2022-09-23T11:31:42.406Z,77.52
2022-09-23T11:34:26.468Z,76.00
2022-09-23T11:36:58.976Z,76.49
2022-09-23T11:39:30.632Z,74.75
2022-09-23T11:42:02.932Z,73.06
2022-09-23T11:44:35.346Z,72.55
2022-09-23T11:47:10.079Z,71.52
2022-09-23T11:49:42.179Z,71.67
2022-09-23T11:52:13.712Z,71.38
2022-09-23T11:54:47.143Z,69.87
2022-09-23T11:57:35.331Z,70.43
2022-09-23T12:00:17.972Z,72.26
2022-09-23T12:03:05.529Z,71.20
2022-09-23T12:05:39.335Z,71.69
2022-09-23T12:08:18.750Z,71.90
2022-09-23T12:10:53.870Z,72.08
2022-09-23T12:13:31.784Z,73.62
2022-09-23T12:16:32.261Z,74.03
2022-09-23T12:19:13.276Z,75.79
2022-09-23T12:21:56.573Z,80.94
2022-09-23T12:24:39.306Z,82.05
2022-09-23T12:27:11.202Z,85.26
2022-09-23T12:29:42.446Z,87.31
2022-09-23T12:32:18.614Z,86.38
2022-09-23T12:34:52.080Z,87.61
2022-09-23T12:37:28.986Z,85.57
2022-09-23T12:40:03.028Z,84.52
2022-09-23T12:42:31.476Z,82.16
2022-09-23T12:45:20.388Z,78.82
2022-09-23T12:47:48.507Z,77.08
2022-09-23T12:50:48.657Z,75.82
2022-09-23T12:53:59.772Z,77.51
2022-09-23T12:56:43.909Z,76.34
2022-09-23T12:59:25.212Z,75.69
2022-09-23T13:01:55.587Z,74.44
2022-09-23T13:04:54.396Z,76.40
2022-09-23T13:07:27.547Z,78.71
2022-09-23T13:10:02.853Z,80.08
2022-09-23T13:12:35.520Z,79.92
2022-09-23T13:15:06.402Z,80.83
2022-09-23T13:17:38.958Z,82.22
2022-09-23T13:20:29.166Z,84.28
2022-09-23T13:23:22.288Z,84.07
2022-09-23T13:25:52.569Z,84.15
2022-09-23T13:28:31.013Z,83.98
2022-09-23T13:30:59.467Z,83.21
2022-09-23T13:33:38.820Z,81.88
2022-09-23T13:36:13.266Z,81.60
2022-09-23T13:38:42.184Z,81.00
2022-09-23T13:41:16.222Z,80.66
2022-09-23T13:43:46.050Z,78.10
2022-09-23T13:46:18.303Z,76.67
2022-09-23T13:48:51.652Z,78.57
2022-09-23T13:51:30.495Z,76.72
2022-09-23T13:54:00.314Z,74.69
2022-09-23T13:56:30.312Z,74.75
2022-09-23T13:59:23.682Z,73.39
2022-09-23T14:01:51.718Z,73.40
2022-09-23T14:04:26.021Z,73.83
2022-09-23T14:06:54.424Z,73.16
2022-09-23T14:09:27.340Z,74.91
2022-09-23T14:11:57.285Z,78.27
2022-09-23T14:14:26.354Z,80.16
2022-09-23T14:16:56.107Z,80.74
2022-09-23T14:19:27.283Z,81.98
2022-09-23T14:21:56.429Z,81.35
2022-09-23T14:24:27.115Z,81.25
2022-09-23T14:26:58.164Z,80.54
2022-09-23T14:29:31.676Z,81.95
2022-09-23T14:32:04.242Z,82.61
2022-09-23T14:34:48.207Z,79.09
2022-09-23T14:37:44.944Z,79.04
2022-09-23T14:40:16.734Z,77.24
2022-09-23T14:42:47.708Z,75.06
2022-09-23T14:45:20.221Z,73.36
2022-09-23T14:47:51.256Z,72.86
2022-09-23T14:50:39.714Z,72.82
2022-09-23T14:53:33.962Z,73.64
2022-09-23T14:56:20.577Z,73.38
2022-09-23T14:58:56.646Z,74.65
2022-09-23T15:01:39.150Z,74.23
2022-09-23T15:04:32.606Z,73.31
2022-09-23T15:07:06.186Z,73.38
2022-09-23T15:09:38.888Z,75.66
2022-09-23T15:12:08.713Z,75.68
2022-09-23T15:14:40.697Z,75.35
2022-09-23T15:17:21.630Z,77.51
2022-09-23T15:19:55.241Z,79.21
2022-09-23T15:22:25.991Z,81.25
2022-09-23T15:24:55.034Z,81.25
2022-09-23T15:27:30.918Z,81.19
2022-09-23T15:30:17.180Z,82.69
2022-09-23T15:32:45.253Z,84.79
2022-09-23T15:35:15.950Z,89.80
2022-09-23T15:37:46.884Z,90.95
2022-09-23T15:40:20.986Z,95.10
2022-09-23T15:42:51.582Z,100.00
2022-09-23T15:45:22.183Z,100.00
2022-09-23T15:47:52.366Z,100.00
2022-09-23T15:50:20.880Z,100.00
2022-09-23T15:52:50.283Z,100.00
2022-09-23T15:55:21.322Z,100.00
2022-09-23T15:57:49.305Z,100.00
2022-09-23T16:00:17.521Z,100.00
2022-09-23T16:02:47.468Z,100.00
2022-09-23T16:05:26.790Z,100.00
2022-09-23T16:07:56.230Z,100.00
2022-09-23T16:10:24.486Z,100.00
2022-09-23T16:12:53.576Z,100.00
2022-09-23T16:15:23.384Z,100.00
2022-09-23T16:17:51.889Z,100.00
2022-09-23T16:20:20.117Z,100.00
2022-09-23T16:22:55.410Z,100.00
2022-09-23T16:25:28.208Z,100.00
2022-09-23T16:27:57.312Z,100.00
2022-09-23T16:30:26.054Z,100.00
2022-09-23T16:32:54.476Z,100.00
2022-09-23T16:35:23.197Z,100.00
2022-09-23T16:37:52.845Z,100.00
2022-09-23T16:40:23.515Z,100.00
2022-09-23T16:42:55.080Z,100.00
2022-09-23T16:45:24.161Z,100.00
2022-09-23T16:47:54.362Z,100.00
2022-09-23T16:50:24.434Z,100.00
2022-09-23T16:52:56.182Z,100.00
2022-09-23T16:55:25.784Z,100.00
2022-09-23T16:57:55.508Z,100.00
2022-09-23T17:00:41.480Z,100.00
2022-09-23T17:03:30.159Z,100.00
2022-09-23T17:05:58.732Z,100.00
2022-09-23T17:08:26.631Z,100.00
2022-09-23T17:10:59.710Z,100.00
2022-09-23T17:13:30.058Z,100.00
2022-09-23T17:15:58.078Z,100.00
2022-09-23T17:18:26.167Z,100.00
2022-09-23T17:21:05.153Z,100.00
2022-09-23T17:23:35.203Z,100.00
2022-09-23T17:26:05.466Z,100.00
2022-09-23T17:28:34.810Z,100.00
2022-09-23T17:31:06.414Z,100.00
2022-09-23T17:33:37.270Z,100.00
2022-09-23T17:36:08.902Z,100.00
2022-09-23T17:38:39.266Z,100.00
2022-09-23T17:41:08.423Z,100.00
2022-09-23T17:43:38.497Z,100.00
2022-09-23T17:46:08.366Z,100.00
2022-09-23T17:48:38.153Z,100.00
2022-09-23T17:51:08.359Z,100.00
2022-09-23T17:53:38.734Z,100.00
2022-09-23T17:56:08.806Z,100.00
2022-09-23T17:58:39.088Z,100.00
2022-09-23T18:01:10.880Z,100.00
2022-09-23T18:03:39.410Z,100.00
2022-09-23T18:06:13.175Z,100.00
2022-09-23T18:08:41.906Z,100.00
2022-09-23T18:11:15.357Z,100.00
2022-09-23T18:13:49.277Z,100.00
2022-09-23T18:16:17.710Z,100.00
2022-09-23T18:18:50.585Z,100.00
2022-09-23T18:21:19.216Z,100.00
2022-09-23T18:23:47.354Z,100.00
2022-09-23T18:26:16.604Z,100.00
2022-09-23T18:28:45.945Z,100.00
2022-09-23T18:31:14.003Z,100.00
2022-09-23T18:33:42.366Z,100.00
2022-09-23T18:36:10.776Z,100.00
2022-09-23T18:38:38.748Z,100.00
2022-09-23T18:41:07.255Z,100.00
2022-09-23T18:43:40.702Z,100.00
2022-09-23T18:46:12.889Z,100.00
2022-09-23T18:48:59.014Z,100.00
2022-09-23T18:51:29.603Z,100.00
2022-09-23T18:53:58.690Z,100.00
2022-09-23T18:56:29.722Z,100.00
2022-09-23T18:58:57.834Z,100.00
2022-09-23T19:01:27.524Z,100.00
2022-09-23T19:03:56.613Z,100.00
2022-09-23T19:06:25.450Z,100.00
2022-09-23T19:08:55.668Z,100.00
2022-09-23T19:11:24.217Z,100.00
2022-09-23T19:13:55.425Z,100.00
2022-09-23T19:16:24.046Z,100.00
2022-09-23T19:18:54.416Z,100.00
2022-09-23T19:21:23.883Z,100.00
2022-09-23T19:23:54.043Z,100.00
2022-09-23T19:26:24.784Z,100.00
2022-09-23T19:28:55.028Z,100.00
2022-09-23T19:31:25.503Z,100.00
2022-09-23T19:33:57.044Z,100.00
2022-09-23T19:36:26.832Z,100.00
2022-09-23T19:38:56.166Z,100.00
2022-09-23T19:41:24.747Z,100.00
2022-09-23T19:43:58.648Z,100.00
2022-09-23T19:46:26.897Z,100.00
2022-09-23T19:48:56.190Z,100.00
2022-09-23T19:51:24.262Z,100.00
2022-09-23T19:53:52.198Z,100.00
2022-09-23T19:56:20.899Z,100.00
2022-09-23T19:58:52.614Z,100.00
2022-09-23T20:01:20.947Z,100.00
2022-09-23T20:03:49.527Z,100.00
2022-09-23T20:06:19.196Z,100.00
2022-09-23T20:08:47.959Z,100.00
2022-09-23T20:11:18.276Z,100.00
2022-09-23T20:13:48.588Z,100.00
2022-09-23T20:16:18.400Z,100.00
2022-09-23T20:18:47.350Z,100.00
2022-09-23T20:21:16.615Z,100.00
2022-09-23T20:23:45.906Z,100.00
2022-09-23T20:26:32.979Z,100.00
2022-09-23T20:29:01.649Z,100.00
2022-09-23T20:31:30.211Z,100.00
2022-09-23T20:33:59.117Z,100.00
2022-09-23T20:36:27.992Z,100.00
2022-09-23T20:38:59.691Z,100.00
2022-09-23T20:41:28.259Z,100.00
2022-09-23T20:43:59.417Z,100.00
2022-09-23T20:46:28.628Z,100.00
2022-09-23T20:48:57.028Z,100.00
2022-09-23T20:51:26.318Z,100.00
2022-09-23T20:53:54.345Z,100.00
2022-09-23T20:56:25.328Z,100.00
2022-09-23T20:58:54.278Z,100.00
2022-09-23T21:01:22.670Z,100.00
2022-09-23T21:03:52.396Z,100.00
2022-09-23T21:06:20.620Z,100.00
2022-09-23T21:08:48.496Z,100.00
2022-09-23T21:11:18.038Z,100.00
2022-09-23T21:13:49.246Z,100.00
2022-09-23T21:16:18.294Z,100.00
2022-09-23T21:18:48.105Z,100.00
2022-09-23T21:21:19.226Z,100.00
2022-09-23T21:23:47.862Z,100.00
2022-09-23T21:26:20.259Z,100.00
2022-09-23T21:28:51.012Z,100.00
2022-09-23T21:31:24.042Z,100.00
2022-09-23T21:33:55.941Z,100.00
2022-09-23T21:36:25.228Z,100.00
2022-09-23T21:38:53.375Z,100.00
2022-09-23T21:41:21.700Z,100.00
2022-09-23T21:43:51.250Z,100.00
2022-09-23T21:46:21.193Z,100.00
2022-09-23T21:48:53.353Z,100.00
2022-09-23T21:51:24.169Z,100.00
2022-09-23T21:53:54.537Z,100.00
2022-09-23T21:56:24.049Z,100.00
2022-09-23T21:58:54.964Z,100.00
2022-09-23T22:01:24.786Z,100.00
2022-09-23T22:03:54.392Z,100.00
2022-09-23T22:06:24.192Z,100.00
2022-09-23T22:08:54.537Z,100.00
2022-09-23T22:11:44.515Z,100.00
2022-09-23T22:14:15.400Z,100.00
2022-09-23T22:16:43.902Z,100.00
2022-09-23T22:19:13.676Z,100.00
2022-09-23T22:21:43.089Z,100.00
2022-09-23T22:24:12.630Z,100.00
2022-09-23T22:26:42.377Z,100.00
2022-09-23T22:29:31.197Z,100.00
2022-09-23T22:32:17.452Z,100.00
2022-09-23T22:34:50.180Z,100.00
2022-09-23T22:37:21.619Z,100.00
2022-09-23T22:39:49.558Z,100.00
2022-09-23T22:42:18.119Z,100.00
2022-09-23T22:44:47.419Z,100.00
2022-09-23T22:47:15.534Z,100.00
2022-09-23T22:49:43.421Z,100.00
2022-09-23T22:52:12.497Z,100.00
2022-09-23T22:54:40.412Z,100.00
2022-09-23T22:57:09.440Z,100.00
2022-09-23T22:59:38.340Z,100.00
2022-09-23T23:02:07.709Z,100.00
2022-09-23T23:04:37.199Z,100.00
2022-09-23T23:07:06.975Z,100.00
2022-09-23T23:09:35.396Z,100.00
2022-09-23T23:12:03.946Z,100.00
2022-09-23T23:14:32.249Z,100.00
2022-09-23T23:17:00.519Z,100.00
2022-09-23T23:19:29.811Z,100.00
2022-09-23T23:21:57.741Z,100.00
2022-09-23T23:24:25.896Z,100.00
2022-09-23T23:26:54.100Z,100.00
2022-09-23T23:29:23.310Z,100.00
2022-09-23T23:31:51.917Z,100.00
2022-09-23T23:34:22.950Z,100.00
2022-09-23T23:36:55.133Z,100.00
2022-09-23T23:39:24.775Z,100.00
2022-09-23T23:41:55.266Z,100.00
2022-09-23T23:44:24.718Z,100.00
2022-09-23T23:46:52.838Z,100.00
2022-09-23T23:49:21.526Z,100.00
2022-09-23T23:51:49.535Z,100.00
2022-09-23T23:54:18.831Z,100.00
2022-09-23T23:56:46.912Z,100.00
2022-09-23T23:59:14.801Z,100.00
